sensor_id;sensor_type;location;lat;lon;timestamp;P1;durP1;ratioP1;P2;durP2;ratioP2
60211;SDS011;46079;48.686;15.598;2023-02-26T00:02:14;1.25;;;0.70;;
60211;SDS011;46079;48.686;15.598;2023-02-26T00:04:40;1.92;;;0.80;;
60211;SDS011;46079;48.686;15.598;2023-02-26T00:07:05;2.13;;;0.70;;
60211;SDS011;46079;48.686;15.598;2023-02-26T00:09:31;2.15;;;0.70;;
60211;SDS011;46079;48.686;15.598;2023-02-26T00:11:57;0.95;;;0.63;;
60211;SDS011;46079;48.686;15.598;2023-02-26T00:14:23;1.98;;;0.70;;
60211;SDS011;46079;48.686;15.598;2023-02-26T00:21:55;2.58;;;0.70;;
60211;SDS011;46079;48.686;15.598;2023-02-26T00:24:21;1.92;;;0.70;;
60211;SDS011;46079;48.686;15.598;2023-02-26T00:26:46;1.73;;;0.70;;
60211;SDS011;46079;48.686;15.598;2023-02-26T00:29:12;3.42;;;0.88;;
60211;SDS011;46079;48.686;15.598;2023-02-26T00:31:37;2.15;;;0.82;;
60211;SDS011;46079;48.686;15.598;2023-02-26T00:34:03;2.58;;;0.70;;
60211;SDS011;46079;48.686;15.598;2023-02-26T00:39:16;2.22;;;0.65;;
60211;SDS011;46079;48.686;15.598;2023-02-26T00:42:03;2.83;;;1.10;;
60211;SDS011;46079;48.686;15.598;2023-02-26T00:44:29;4.03;;;0.77;;
60211;SDS011;46079;48.686;15.598;2023-02-26T00:46:59;2.90;;;0.80;;
60211;SDS011;46079;48.686;15.598;2023-02-26T00:54:58;1.83;;;0.80;;
60211;SDS011;46079;48.686;15.598;2023-02-26T00:57:23;1.23;;;0.50;;
60211;SDS011;46079;48.686;15.598;2023-02-26T00:59:49;2.25;;;0.68;;
60211;SDS011;46079;48.686;15.598;2023-02-26T01:02:14;1.88;;;0.70;;
60211;SDS011;46079;48.686;15.598;2023-02-26T01:04:40;2.45;;;0.80;;
60211;SDS011;46079;48.686;15.598;2023-02-26T01:07:06;1.80;;;0.60;;
60211;SDS011;46079;48.686;15.598;2023-02-26T01:09:34;2.38;;;0.80;;
60211;SDS011;46079;48.686;15.598;2023-02-26T01:12:03;1.92;;;0.70;;
60211;SDS011;46079;48.686;15.598;2023-02-26T01:14:34;2.30;;;0.80;;
60211;SDS011;46079;48.686;15.598;2023-02-26T01:20:08;2.03;;;0.80;;
60211;SDS011;46079;48.686;15.598;2023-02-26T01:22:45;1.95;;;0.65;;
60211;SDS011;46079;48.686;15.598;2023-02-26T01:25:23;1.70;;;0.70;;
60211;SDS011;46079;48.686;15.598;2023-02-26T01:27:53;2.45;;;0.82;;
60211;SDS011;46079;48.686;15.598;2023-02-26T01:30:21;2.60;;;0.80;;
60211;SDS011;46079;48.686;15.598;2023-02-26T01:33:00;2.35;;;0.70;;
60211;SDS011;46079;48.686;15.598;2023-02-26T01:35:44;2.00;;;0.65;;
60211;SDS011;46079;48.686;15.598;2023-02-26T01:49:29;2.97;;;0.80;;
60211;SDS011;46079;48.686;15.598;2023-02-26T01:51:57;1.98;;;0.70;;
60211;SDS011;46079;48.686;15.598;2023-02-26T01:54:33;2.35;;;0.70;;
60211;SDS011;46079;48.686;15.598;2023-02-26T01:57:02;1.95;;;0.70;;
60211;SDS011;46079;48.686;15.598;2023-02-26T01:59:44;5.55;;;0.95;;
60211;SDS011;46079;48.686;15.598;2023-02-26T02:02:13;2.17;;;0.70;;
60211;SDS011;46079;48.686;15.598;2023-02-26T02:04:42;3.33;;;0.90;;
60211;SDS011;46079;48.686;15.598;2023-02-26T02:07:09;2.50;;;0.70;;
60211;SDS011;46079;48.686;15.598;2023-02-26T02:09:35;1.50;;;0.60;;
60211;SDS011;46079;48.686;15.598;2023-02-26T02:12:06;2.45;;;0.70;;
60211;SDS011;46079;48.686;15.598;2023-02-26T02:23:16;1.95;;;0.70;;
60211;SDS011;46079;48.686;15.598;2023-02-26T02:31:19;2.78;;;0.80;;
60211;SDS011;46079;48.686;15.598;2023-02-26T02:33:54;3.60;;;0.90;;
60211;SDS011;46079;48.686;15.598;2023-02-26T02:39:20;2.15;;;0.70;;
60211;SDS011;46079;48.686;15.598;2023-02-26T02:41:51;2.75;;;0.90;;
60211;SDS011;46079;48.686;15.598;2023-02-26T02:44:22;3.13;;;0.80;;
60211;SDS011;46079;48.686;15.598;2023-02-26T02:46:51;3.00;;;0.80;;
60211;SDS011;46079;48.686;15.598;2023-02-26T02:49:23;1.92;;;0.70;;
60211;SDS011;46079;48.686;15.598;2023-02-26T02:51:54;1.48;;;0.60;;
60211;SDS011;46079;48.686;15.598;2023-02-26T02:54:35;8.95;;;0.82;;
60211;SDS011;46079;48.686;15.598;2023-02-26T02:57:16;2.28;;;0.77;;
60211;SDS011;46079;48.686;15.598;2023-02-26T02:59:47;2.78;;;0.75;;
60211;SDS011;46079;48.686;15.598;2023-02-26T03:04:50;2.63;;;0.75;;
60211;SDS011;46079;48.686;15.598;2023-02-26T03:07:16;1.90;;;0.80;;
60211;SDS011;46079;48.686;15.598;2023-02-26T03:09:41;3.40;;;0.77;;
60211;SDS011;46079;48.686;15.598;2023-02-26T03:12:08;2.05;;;0.70;;
60211;SDS011;46079;48.686;15.598;2023-02-26T03:14:33;1.42;;;0.60;;
60211;SDS011;46079;48.686;15.598;2023-02-26T03:22:46;3.20;;;0.80;;
60211;SDS011;46079;48.686;15.598;2023-02-26T03:25:37;3.75;;;1.10;;
60211;SDS011;46079;48.686;15.598;2023-02-26T03:28:08;2.25;;;0.73;;
60211;SDS011;46079;48.686;15.598;2023-02-26T03:35:58;2.58;;;0.85;;
60211;SDS011;46079;48.686;15.598;2023-02-26T03:43:54;2.08;;;0.73;;
60211;SDS011;46079;48.686;15.598;2023-02-26T03:46:29;1.60;;;0.68;;
60211;SDS011;46079;48.686;15.598;2023-02-26T03:49:00;2.10;;;0.70;;
60211;SDS011;46079;48.686;15.598;2023-02-26T03:51:32;1.63;;;0.60;;
60211;SDS011;46079;48.686;15.598;2023-02-26T03:54:03;2.22;;;0.80;;
60211;SDS011;46079;48.686;15.598;2023-02-26T03:56:37;2.35;;;0.70;;
60211;SDS011;46079;48.686;15.598;2023-02-26T03:59:06;2.13;;;0.70;;
60211;SDS011;46079;48.686;15.598;2023-02-26T04:01:40;1.90;;;0.65;;
60211;SDS011;46079;48.686;15.598;2023-02-26T04:04:12;1.65;;;0.70;;
60211;SDS011;46079;48.686;15.598;2023-02-26T04:06:42;1.67;;;0.60;;
60211;SDS011;46079;48.686;15.598;2023-02-26T04:09:09;1.92;;;0.70;;
60211;SDS011;46079;48.686;15.598;2023-02-26T04:11:34;2.13;;;0.75;;
60211;SDS011;46079;48.686;15.598;2023-02-26T04:14:01;3.42;;;0.80;;
60211;SDS011;46079;48.686;15.598;2023-02-26T04:16:27;1.60;;;0.68;;
60211;SDS011;46079;48.686;15.598;2023-02-26T04:18:53;3.22;;;0.85;;
60211;SDS011;46079;48.686;15.598;2023-02-26T04:21:19;1.65;;;0.60;;
60211;SDS011;46079;48.686;15.598;2023-02-26T04:23:46;2.78;;;0.80;;
60211;SDS011;46079;48.686;15.598;2023-02-26T04:26:12;2.70;;;0.75;;
60211;SDS011;46079;48.686;15.598;2023-02-26T04:28:38;3.53;;;0.90;;
60211;SDS011;46079;48.686;15.598;2023-02-26T04:31:04;3.45;;;0.80;;
60211;SDS011;46079;48.686;15.598;2023-02-26T04:33:31;5.68;;;0.80;;
60211;SDS011;46079;48.686;15.598;2023-02-26T04:35:57;2.08;;;0.60;;
60211;SDS011;46079;48.686;15.598;2023-02-26T04:38:23;1.58;;;0.60;;
60211;SDS011;46079;48.686;15.598;2023-02-26T04:40:49;2.42;;;0.90;;
60211;SDS011;46079;48.686;15.598;2023-02-26T04:43:15;1.88;;;0.63;;
60211;SDS011;46079;48.686;15.598;2023-02-26T04:45:44;2.05;;;0.70;;
60211;SDS011;46079;48.686;15.598;2023-02-26T04:48:10;2.55;;;0.68;;
60211;SDS011;46079;48.686;15.598;2023-02-26T04:50:36;2.05;;;0.77;;
60211;SDS011;46079;48.686;15.598;2023-02-26T04:53:01;2.38;;;0.75;;
60211;SDS011;46079;48.686;15.598;2023-02-26T04:55:26;1.75;;;0.57;;
60211;SDS011;46079;48.686;15.598;2023-02-26T04:57:52;2.80;;;0.80;;
60211;SDS011;46079;48.686;15.598;2023-02-26T05:00:18;2.28;;;0.75;;
60211;SDS011;46079;48.686;15.598;2023-02-26T05:02:44;2.58;;;0.70;;
60211;SDS011;46079;48.686;15.598;2023-02-26T05:05:10;3.83;;;0.70;;
60211;SDS011;46079;48.686;15.598;2023-02-26T05:07:35;1.10;;;0.50;;
60211;SDS011;46079;48.686;15.598;2023-02-26T05:10:01;2.55;;;0.50;;
60211;SDS011;46079;48.686;15.598;2023-02-26T05:12:27;1.00;;;0.60;;
60211;SDS011;46079;48.686;15.598;2023-02-26T05:14:52;1.33;;;0.60;;
60211;SDS011;46079;48.686;15.598;2023-02-26T05:17:18;2.17;;;0.70;;
60211;SDS011;46079;48.686;15.598;2023-02-26T05:19:43;2.63;;;0.80;;
60211;SDS011;46079;48.686;15.598;2023-02-26T05:22:09;2.97;;;0.60;;
60211;SDS011;46079;48.686;15.598;2023-02-26T05:24:34;2.15;;;0.70;;
60211;SDS011;46079;48.686;15.598;2023-02-26T05:26:59;2.97;;;0.80;;
60211;SDS011;46079;48.686;15.598;2023-02-26T05:29:25;2.40;;;0.68;;
60211;SDS011;46079;48.686;15.598;2023-02-26T05:31:50;1.98;;;0.70;;
60211;SDS011;46079;48.686;15.598;2023-02-26T05:34:16;1.42;;;0.60;;
60211;SDS011;46079;48.686;15.598;2023-02-26T05:36:41;2.85;;;0.88;;
60211;SDS011;46079;48.686;15.598;2023-02-26T05:39:08;1.45;;;0.60;;
60211;SDS011;46079;48.686;15.598;2023-02-26T05:41:34;2.10;;;0.63;;
60211;SDS011;46079;48.686;15.598;2023-02-26T05:43:59;3.40;;;0.70;;
60211;SDS011;46079;48.686;15.598;2023-02-26T05:46:26;2.17;;;0.68;;
60211;SDS011;46079;48.686;15.598;2023-02-26T05:48:52;1.85;;;0.60;;
60211;SDS011;46079;48.686;15.598;2023-02-26T05:51:17;1.58;;;0.73;;
60211;SDS011;46079;48.686;15.598;2023-02-26T05:53:43;2.40;;;0.77;;
60211;SDS011;46079;48.686;15.598;2023-02-26T05:56:09;7.70;;;0.70;;
60211;SDS011;46079;48.686;15.598;2023-02-26T05:58:34;2.17;;;0.68;;
60211;SDS011;46079;48.686;15.598;2023-02-26T06:01:00;2.55;;;0.63;;
60211;SDS011;46079;48.686;15.598;2023-02-26T06:03:35;1.90;;;0.77;;
60211;SDS011;46079;48.686;15.598;2023-02-26T06:06:00;1.05;;;0.55;;
60211;SDS011;46079;48.686;15.598;2023-02-26T06:08:26;1.73;;;0.70;;
60211;SDS011;46079;48.686;15.598;2023-02-26T06:10:51;2.03;;;0.65;;
60211;SDS011;46079;48.686;15.598;2023-02-26T06:13:16;1.98;;;0.77;;
60211;SDS011;46079;48.686;15.598;2023-02-26T06:15:42;2.28;;;0.68;;
60211;SDS011;46079;48.686;15.598;2023-02-26T06:18:08;2.22;;;0.82;;
60211;SDS011;46079;48.686;15.598;2023-02-26T06:20:34;1.52;;;0.55;;
60211;SDS011;46079;48.686;15.598;2023-02-26T06:22:59;3.53;;;0.95;;
60211;SDS011;46079;48.686;15.598;2023-02-26T06:25:25;2.30;;;0.70;;
60211;SDS011;46079;48.686;15.598;2023-02-26T06:27:53;1.88;;;0.52;;
60211;SDS011;46079;48.686;15.598;2023-02-26T06:30:18;2.63;;;0.70;;
60211;SDS011;46079;48.686;15.598;2023-02-26T06:32:44;2.25;;;0.90;;
60211;SDS011;46079;48.686;15.598;2023-02-26T06:35:09;1.92;;;0.63;;
60211;SDS011;46079;48.686;15.598;2023-02-26T06:37:35;2.15;;;0.80;;
60211;SDS011;46079;48.686;15.598;2023-02-26T06:40:01;1.67;;;0.70;;
60211;SDS011;46079;48.686;15.598;2023-02-26T06:42:28;2.30;;;0.70;;
60211;SDS011;46079;48.686;15.598;2023-02-26T06:44:53;2.92;;;0.90;;
60211;SDS011;46079;48.686;15.598;2023-02-26T06:47:21;1.95;;;0.80;;
60211;SDS011;46079;48.686;15.598;2023-02-26T06:49:47;1.58;;;0.60;;
60211;SDS011;46079;48.686;15.598;2023-02-26T06:52:13;2.10;;;0.80;;
60211;SDS011;46079;48.686;15.598;2023-02-26T06:54:38;1.45;;;0.90;;
60211;SDS011;46079;48.686;15.598;2023-02-26T06:57:04;2.08;;;0.65;;
60211;SDS011;46079;48.686;15.598;2023-02-26T06:59:29;2.60;;;0.70;;
60211;SDS011;46079;48.686;15.598;2023-02-26T07:01:55;1.33;;;0.63;;
60211;SDS011;46079;48.686;15.598;2023-02-26T07:04:21;4.28;;;0.82;;
60211;SDS011;46079;48.686;15.598;2023-02-26T07:06:47;1.90;;;0.60;;
60211;SDS011;46079;48.686;15.598;2023-02-26T07:09:13;1.73;;;0.57;;
60211;SDS011;46079;48.686;15.598;2023-02-26T07:11:38;1.42;;;0.60;;
60211;SDS011;46079;48.686;15.598;2023-02-26T07:14:04;2.53;;;0.63;;
60211;SDS011;46079;48.686;15.598;2023-02-26T07:16:29;1.83;;;0.65;;
60211;SDS011;46079;48.686;15.598;2023-02-26T07:18:58;1.67;;;0.77;;
60211;SDS011;46079;48.686;15.598;2023-02-26T07:21:23;2.08;;;0.60;;
60211;SDS011;46079;48.686;15.598;2023-02-26T07:23:49;3.00;;;0.80;;
60211;SDS011;46079;48.686;15.598;2023-02-26T07:26:14;3.10;;;0.90;;
60211;SDS011;46079;48.686;15.598;2023-02-26T07:28:41;2.67;;;0.70;;
60211;SDS011;46079;48.686;15.598;2023-02-26T07:31:07;1.85;;;0.77;;
60211;SDS011;46079;48.686;15.598;2023-02-26T07:33:32;1.95;;;0.70;;
60211;SDS011;46079;48.686;15.598;2023-02-26T07:35:59;2.22;;;0.60;;
60211;SDS011;46079;48.686;15.598;2023-02-26T07:38:25;3.53;;;0.88;;
60211;SDS011;46079;48.686;15.598;2023-02-26T07:40:53;1.90;;;0.85;;
60211;SDS011;46079;48.686;15.598;2023-02-26T07:43:19;2.15;;;0.80;;
60211;SDS011;46079;48.686;15.598;2023-02-26T07:45:45;3.78;;;0.82;;
60211;SDS011;46079;48.686;15.598;2023-02-26T07:48:10;5.18;;;0.93;;
60211;SDS011;46079;48.686;15.598;2023-02-26T07:50:35;1.50;;;0.63;;
60211;SDS011;46079;48.686;15.598;2023-02-26T07:53:01;3.80;;;0.80;;
60211;SDS011;46079;48.686;15.598;2023-02-26T07:55:26;1.45;;;0.80;;
60211;SDS011;46079;48.686;15.598;2023-02-26T07:57:52;0.82;;;0.60;;
60211;SDS011;46079;48.686;15.598;2023-02-26T08:00:18;3.47;;;0.90;;
60211;SDS011;46079;48.686;15.598;2023-02-26T08:02:43;3.28;;;0.93;;
60211;SDS011;46079;48.686;15.598;2023-02-26T08:05:09;1.30;;;0.60;;
60211;SDS011;46079;48.686;15.598;2023-02-26T08:07:34;1.65;;;0.70;;
60211;SDS011;46079;48.686;15.598;2023-02-26T08:10:01;2.60;;;0.80;;
60211;SDS011;46079;48.686;15.598;2023-02-26T08:12:27;2.05;;;0.70;;
60211;SDS011;46079;48.686;15.598;2023-02-26T08:14:53;1.50;;;0.68;;
60211;SDS011;46079;48.686;15.598;2023-02-26T08:17:18;2.53;;;0.90;;
60211;SDS011;46079;48.686;15.598;2023-02-26T08:19:44;1.92;;;0.82;;
60211;SDS011;46079;48.686;15.598;2023-02-26T08:22:09;2.00;;;0.77;;
60211;SDS011;46079;48.686;15.598;2023-02-26T08:24:35;2.78;;;0.80;;
60211;SDS011;46079;48.686;15.598;2023-02-26T08:27:00;3.45;;;0.80;;
60211;SDS011;46079;48.686;15.598;2023-02-26T08:29:25;2.70;;;0.80;;
60211;SDS011;46079;48.686;15.598;2023-02-26T08:31:51;2.20;;;0.75;;
60211;SDS011;46079;48.686;15.598;2023-02-26T08:34:17;1.98;;;0.60;;
60211;SDS011;46079;48.686;15.598;2023-02-26T08:36:43;2.80;;;0.90;;
60211;SDS011;46079;48.686;15.598;2023-02-26T08:39:08;1.48;;;0.75;;
60211;SDS011;46079;48.686;15.598;2023-02-26T08:41:34;4.75;;;0.90;;
60211;SDS011;46079;48.686;15.598;2023-02-26T08:44:00;3.47;;;0.98;;
60211;SDS011;46079;48.686;15.598;2023-02-26T08:46:27;1.48;;;0.70;;
60211;SDS011;46079;48.686;15.598;2023-02-26T08:48:52;3.03;;;0.90;;
60211;SDS011;46079;48.686;15.598;2023-02-26T08:51:19;3.15;;;0.80;;
60211;SDS011;46079;48.686;15.598;2023-02-26T08:53:45;2.90;;;0.88;;
60211;SDS011;46079;48.686;15.598;2023-02-26T08:56:11;2.08;;;0.75;;
60211;SDS011;46079;48.686;15.598;2023-02-26T08:58:37;2.78;;;0.90;;
60211;SDS011;46079;48.686;15.598;2023-02-26T09:01:03;1.70;;;0.70;;
60211;SDS011;46079;48.686;15.598;2023-02-26T09:03:28;4.68;;;0.93;;
60211;SDS011;46079;48.686;15.598;2023-02-26T09:05:54;2.20;;;0.77;;
60211;SDS011;46079;48.686;15.598;2023-02-26T09:08:19;2.75;;;0.80;;
60211;SDS011;46079;48.686;15.598;2023-02-26T09:10:45;2.97;;;1.00;;
60211;SDS011;46079;48.686;15.598;2023-02-26T09:13:11;2.65;;;0.85;;
60211;SDS011;46079;48.686;15.598;2023-02-26T09:15:36;3.15;;;0.90;;
60211;SDS011;46079;48.686;15.598;2023-02-26T09:18:02;2.80;;;0.80;;
60211;SDS011;46079;48.686;15.598;2023-02-26T09:20:28;2.53;;;0.80;;
60211;SDS011;46079;48.686;15.598;2023-02-26T09:22:53;2.85;;;0.90;;
60211;SDS011;46079;48.686;15.598;2023-02-26T09:25:18;2.72;;;0.90;;
60211;SDS011;46079;48.686;15.598;2023-02-26T09:27:44;3.65;;;0.90;;
60211;SDS011;46079;48.686;15.598;2023-02-26T09:30:10;1.65;;;0.80;;
60211;SDS011;46079;48.686;15.598;2023-02-26T09:32:36;2.35;;;0.73;;
60211;SDS011;46079;48.686;15.598;2023-02-26T09:35:02;3.10;;;1.00;;
60211;SDS011;46079;48.686;15.598;2023-02-26T09:37:28;2.45;;;0.95;;
60211;SDS011;46079;48.686;15.598;2023-02-26T09:39:54;3.33;;;0.82;;
60211;SDS011;46079;48.686;15.598;2023-02-26T09:45:37;1.98;;;0.75;;
60211;SDS011;46079;48.686;15.598;2023-02-26T09:48:15;1.90;;;0.88;;
60211;SDS011;46079;48.686;15.598;2023-02-26T09:50:50;1.92;;;0.70;;
60211;SDS011;46079;48.686;15.598;2023-02-26T09:53:21;2.97;;;0.90;;
60211;SDS011;46079;48.686;15.598;2023-02-26T09:55:52;3.88;;;0.90;;
60211;SDS011;46079;48.686;15.598;2023-02-26T10:11:44;2.38;;;0.80;;
60211;SDS011;46079;48.686;15.598;2023-02-26T10:14:15;3.65;;;0.90;;
60211;SDS011;46079;48.686;15.598;2023-02-26T10:16:49;2.78;;;0.90;;
60211;SDS011;46079;48.686;15.598;2023-02-26T10:19:18;4.63;;;0.82;;
60211;SDS011;46079;48.686;15.598;2023-02-26T10:24:20;2.38;;;0.80;;
60211;SDS011;46079;48.686;15.598;2023-02-26T10:26:50;2.38;;;0.70;;
60211;SDS011;46079;48.686;15.598;2023-02-26T10:29:20;2.80;;;0.80;;
60211;SDS011;46079;48.686;15.598;2023-02-26T10:34:36;1.90;;;0.70;;
60211;SDS011;46079;48.686;15.598;2023-02-26T10:37:11;2.13;;;0.70;;
60211;SDS011;46079;48.686;15.598;2023-02-26T10:42:39;2.37;;;0.90;;
60211;SDS011;46079;48.686;15.598;2023-02-26T10:45:17;2.58;;;0.88;;
60211;SDS011;46079;48.686;15.598;2023-02-26T10:48:07;2.25;;;0.80;;
60211;SDS011;46079;48.686;15.598;2023-02-26T10:50:52;3.20;;;0.88;;
60211;SDS011;46079;48.686;15.598;2023-02-26T10:53:21;1.88;;;0.73;;
60211;SDS011;46079;48.686;15.598;2023-02-26T10:58:32;2.53;;;0.80;;
60211;SDS011;46079;48.686;15.598;2023-02-26T11:00:57;2.05;;;0.70;;
60211;SDS011;46079;48.686;15.598;2023-02-26T11:03:36;2.72;;;0.82;;
60211;SDS011;46079;48.686;15.598;2023-02-26T11:06:04;1.52;;;0.70;;
60211;SDS011;46079;48.686;15.598;2023-02-26T11:08:32;2.25;;;0.90;;
60211;SDS011;46079;48.686;15.598;2023-02-26T11:11:02;1.77;;;0.80;;
60211;SDS011;46079;48.686;15.598;2023-02-26T11:13:32;1.95;;;0.77;;
60211;SDS011;46079;48.686;15.598;2023-02-26T11:16:07;2.83;;;0.95;;
60211;SDS011;46079;48.686;15.598;2023-02-26T11:18:47;2.25;;;0.85;;
60211;SDS011;46079;48.686;15.598;2023-02-26T11:21:18;2.08;;;0.80;;
60211;SDS011;46079;48.686;15.598;2023-02-26T11:23:48;2.90;;;0.90;;
60211;SDS011;46079;48.686;15.598;2023-02-26T11:26:19;2.28;;;0.80;;
60211;SDS011;46079;48.686;15.598;2023-02-26T11:28:53;2.72;;;0.80;;
60211;SDS011;46079;48.686;15.598;2023-02-26T11:31:20;2.28;;;0.77;;
60211;SDS011;46079;48.686;15.598;2023-02-26T11:33:49;3.00;;;0.90;;
60211;SDS011;46079;48.686;15.598;2023-02-26T11:36:16;2.35;;;0.80;;
60211;SDS011;46079;48.686;15.598;2023-02-26T11:38:44;2.38;;;0.82;;
60211;SDS011;46079;48.686;15.598;2023-02-26T11:41:11;3.17;;;0.82;;
60211;SDS011;46079;48.686;15.598;2023-02-26T11:43:44;2.42;;;0.82;;
60211;SDS011;46079;48.686;15.598;2023-02-26T11:46:13;4.13;;;1.00;;
60211;SDS011;46079;48.686;15.598;2023-02-26T11:48:46;3.72;;;0.90;;
60211;SDS011;46079;48.686;15.598;2023-02-26T11:51:14;1.98;;;0.60;;
60211;SDS011;46079;48.686;15.598;2023-02-26T11:56:24;1.73;;;0.70;;
60211;SDS011;46079;48.686;15.598;2023-02-26T11:58:54;2.55;;;0.75;;
60211;SDS011;46079;48.686;15.598;2023-02-26T12:01:25;2.05;;;0.88;;
60211;SDS011;46079;48.686;15.598;2023-02-26T12:04:01;2.38;;;0.80;;
60211;SDS011;46079;48.686;15.598;2023-02-26T12:06:28;1.70;;;0.80;;
60211;SDS011;46079;48.686;15.598;2023-02-26T12:08:54;2.90;;;0.80;;
60211;SDS011;46079;48.686;15.598;2023-02-26T12:22:13;2.88;;;0.85;;
60211;SDS011;46079;48.686;15.598;2023-02-26T12:24:49;1.67;;;0.73;;
60211;SDS011;46079;48.686;15.598;2023-02-26T12:27:22;2.13;;;0.80;;
60211;SDS011;46079;48.686;15.598;2023-02-26T12:30:02;2.97;;;0.80;;
60211;SDS011;46079;48.686;15.598;2023-02-26T12:41:03;3.17;;;0.98;;
60211;SDS011;46079;48.686;15.598;2023-02-26T12:43:53;2.97;;;0.98;;
60211;SDS011;46079;48.686;15.598;2023-02-26T12:46:34;2.95;;;0.85;;
60211;SDS011;46079;48.686;15.598;2023-02-26T13:14:58;3.17;;;0.90;;
60211;SDS011;46079;48.686;15.598;2023-02-26T13:20:25;2.70;;;0.77;;
60211;SDS011;46079;48.686;15.598;2023-02-26T13:23:00;2.75;;;0.75;;
60211;SDS011;46079;48.686;15.598;2023-02-26T13:28:24;2.08;;;0.77;;
60211;SDS011;46079;48.686;15.598;2023-02-26T13:30:55;3.13;;;0.80;;
60211;SDS011;46079;48.686;15.598;2023-02-26T13:33:26;1.67;;;0.80;;
60211;SDS011;46079;48.686;15.598;2023-02-26T13:35:55;4.03;;;0.98;;
60211;SDS011;46079;48.686;15.598;2023-02-26T13:38:37;2.35;;;0.80;;
60211;SDS011;46079;48.686;15.598;2023-02-26T13:44:13;2.67;;;0.90;;
60211;SDS011;46079;48.686;15.598;2023-02-26T13:46:54;2.92;;;0.90;;
60211;SDS011;46079;48.686;15.598;2023-02-26T13:49:58;1.67;;;0.75;;
60211;SDS011;46079;48.686;15.598;2023-02-26T13:52:48;2.25;;;1.20;;
60211;SDS011;46079;48.686;15.598;2023-02-26T13:55:35;3.35;;;0.82;;
60211;SDS011;46079;48.686;15.598;2023-02-26T13:58:14;2.92;;;0.77;;
60211;SDS011;46079;48.686;15.598;2023-02-26T14:00:47;2.05;;;0.70;;
60211;SDS011;46079;48.686;15.598;2023-02-26T14:11:03;2.40;;;1.00;;
60211;SDS011;46079;48.686;15.598;2023-02-26T14:16:54;4.60;;;1.10;;
60211;SDS011;46079;48.686;15.598;2023-02-26T14:19:42;4.03;;;0.93;;
60211;SDS011;46079;48.686;15.598;2023-02-26T14:22:34;3.85;;;1.10;;
60211;SDS011;46079;48.686;15.598;2023-02-26T14:27:40;3.13;;;0.90;;
60211;SDS011;46079;48.686;15.598;2023-02-26T14:35:02;4.38;;;1.13;;
60211;SDS011;46079;48.686;15.598;2023-02-26T14:37:32;2.40;;;0.95;;
60211;SDS011;46079;48.686;15.598;2023-02-26T14:40:18;4.15;;;1.10;;
60211;SDS011;46079;48.686;15.598;2023-02-26T14:42:50;4.35;;;1.23;;
60211;SDS011;46079;48.686;15.598;2023-02-26T14:47:58;4.35;;;1.10;;
60211;SDS011;46079;48.686;15.598;2023-02-26T14:50:28;4.85;;;1.23;;
60211;SDS011;46079;48.686;15.598;2023-02-26T14:58:36;3.75;;;1.10;;
60211;SDS011;46079;48.686;15.598;2023-02-26T15:12:18;3.00;;;0.90;;
60211;SDS011;46079;48.686;15.598;2023-02-26T15:18:44;4.85;;;1.20;;
60211;SDS011;46079;48.686;15.598;2023-02-26T15:21:29;3.75;;;1.20;;
60211;SDS011;46079;48.686;15.598;2023-02-26T15:24:04;3.92;;;1.00;;
60211;SDS011;46079;48.686;15.598;2023-02-26T15:26:32;5.03;;;1.15;;
60211;SDS011;46079;48.686;15.598;2023-02-26T15:29:03;4.05;;;1.05;;
60211;SDS011;46079;48.686;15.598;2023-02-26T15:31:41;3.53;;;1.00;;
60211;SDS011;46079;48.686;15.598;2023-02-26T15:34:09;3.45;;;1.00;;
60211;SDS011;46079;48.686;15.598;2023-02-26T15:36:38;4.35;;;1.15;;
60211;SDS011;46079;48.686;15.598;2023-02-26T15:39:07;4.53;;;1.05;;
60211;SDS011;46079;48.686;15.598;2023-02-26T15:41:33;3.00;;;0.90;;
60211;SDS011;46079;48.686;15.598;2023-02-26T15:44:00;3.50;;;1.10;;
60211;SDS011;46079;48.686;15.598;2023-02-26T15:46:30;3.90;;;1.10;;
60211;SDS011;46079;48.686;15.598;2023-02-26T15:49:12;4.10;;;1.10;;
60211;SDS011;46079;48.686;15.598;2023-02-26T15:51:44;3.65;;;1.15;;
60211;SDS011;46079;48.686;15.598;2023-02-26T15:54:18;4.68;;;1.10;;
60211;SDS011;46079;48.686;15.598;2023-02-26T15:56:47;3.58;;;1.08;;
60211;SDS011;46079;48.686;15.598;2023-02-26T15:59:17;3.13;;;1.00;;
60211;SDS011;46079;48.686;15.598;2023-02-26T16:01:47;5.82;;;1.23;;
60211;SDS011;46079;48.686;15.598;2023-02-26T16:04:15;3.78;;;1.10;;
60211;SDS011;46079;48.686;15.598;2023-02-26T16:06:46;7.93;;;1.33;;
60211;SDS011;46079;48.686;15.598;2023-02-26T16:09:17;3.70;;;0.82;;
60211;SDS011;46079;48.686;15.598;2023-02-26T16:11:57;4.00;;;1.17;;
60211;SDS011;46079;48.686;15.598;2023-02-26T16:14:31;4.13;;;1.20;;
60211;SDS011;46079;48.686;15.598;2023-02-26T16:17:03;2.88;;;0.93;;
60211;SDS011;46079;48.686;15.598;2023-02-26T16:19:32;4.30;;;1.10;;
60211;SDS011;46079;48.686;15.598;2023-02-26T16:22:36;6.03;;;1.23;;
60211;SDS011;46079;48.686;15.598;2023-02-26T16:25:03;5.13;;;1.20;;
60211;SDS011;46079;48.686;15.598;2023-02-26T16:27:32;4.85;;;1.40;;
60211;SDS011;46079;48.686;15.598;2023-02-26T16:29:59;3.47;;;1.08;;
60211;SDS011;46079;48.686;15.598;2023-02-26T16:32:27;3.30;;;1.10;;
60211;SDS011;46079;48.686;15.598;2023-02-26T16:34:56;3.95;;;1.05;;
60211;SDS011;46079;48.686;15.598;2023-02-26T16:39:56;3.28;;;1.02;;
60211;SDS011;46079;48.686;15.598;2023-02-26T16:45:22;3.25;;;0.95;;
60211;SDS011;46079;48.686;15.598;2023-02-26T16:51:08;3.83;;;1.10;;
60211;SDS011;46079;48.686;15.598;2023-02-26T16:53:43;3.05;;;0.98;;
60211;SDS011;46079;48.686;15.598;2023-02-26T16:56:15;4.15;;;1.10;;
60211;SDS011;46079;48.686;15.598;2023-02-26T16:58:44;4.97;;;1.00;;
60211;SDS011;46079;48.686;15.598;2023-02-26T17:01:13;4.65;;;1.25;;
60211;SDS011;46079;48.686;15.598;2023-02-26T17:03:46;4.55;;;1.30;;
60211;SDS011;46079;48.686;15.598;2023-02-26T17:06:15;3.55;;;1.00;;
60211;SDS011;46079;48.686;15.598;2023-02-26T17:08:54;3.30;;;1.00;;
60211;SDS011;46079;48.686;15.598;2023-02-26T17:11:29;4.60;;;1.30;;
60211;SDS011;46079;48.686;15.598;2023-02-26T17:16:34;4.35;;;1.08;;
60211;SDS011;46079;48.686;15.598;2023-02-26T17:18:59;3.35;;;1.00;;
60211;SDS011;46079;48.686;15.598;2023-02-26T17:21:25;4.38;;;1.17;;
60211;SDS011;46079;48.686;15.598;2023-02-26T17:23:51;5.03;;;1.33;;
60211;SDS011;46079;48.686;15.598;2023-02-26T17:26:17;5.43;;;1.30;;
60211;SDS011;46079;48.686;15.598;2023-02-26T17:28:43;4.38;;;1.40;;
60211;SDS011;46079;48.686;15.598;2023-02-26T17:31:08;5.97;;;1.35;;
60211;SDS011;46079;48.686;15.598;2023-02-26T17:33:37;4.70;;;1.25;;
60211;SDS011;46079;48.686;15.598;2023-02-26T17:36:05;4.75;;;1.20;;
60211;SDS011;46079;48.686;15.598;2023-02-26T17:38:31;4.47;;;1.20;;
60211;SDS011;46079;48.686;15.598;2023-02-26T17:40:57;5.90;;;1.60;;
60211;SDS011;46079;48.686;15.598;2023-02-26T17:43:24;5.70;;;1.33;;
60211;SDS011;46079;48.686;15.598;2023-02-26T17:45:50;5.07;;;1.40;;
60211;SDS011;46079;48.686;15.598;2023-02-26T17:48:16;4.80;;;1.20;;
60211;SDS011;46079;48.686;15.598;2023-02-26T17:55:39;4.78;;;1.20;;
60211;SDS011;46079;48.686;15.598;2023-02-26T17:58:05;4.28;;;1.30;;
60211;SDS011;46079;48.686;15.598;2023-02-26T18:00:36;4.88;;;1.30;;
60211;SDS011;46079;48.686;15.598;2023-02-26T18:03:06;5.15;;;1.23;;
60211;SDS011;46079;48.686;15.598;2023-02-26T18:05:32;5.35;;;1.27;;
60211;SDS011;46079;48.686;15.598;2023-02-26T18:08:03;4.00;;;1.08;;
60211;SDS011;46079;48.686;15.598;2023-02-26T18:10:39;4.50;;;1.30;;
60211;SDS011;46079;48.686;15.598;2023-02-26T18:13:05;5.60;;;1.50;;